createdAt,value
2017-08-21T00:00:43.368Z,73.85
2017-08-21T00:03:18.147Z,74.33
2017-08-21T00:05:47.508Z,74.22
2017-08-21T00:08:24.039Z,74.75
2017-08-21T00:10:53.956Z,74.47
2017-08-21T00:13:23.653Z,75.00
2017-08-21T00:15:54.236Z,74.00
2017-08-21T00:18:24.830Z,74.23
2017-08-21T00:20:54.772Z,73.87
2017-08-21T00:23:25.237Z,75.28
2017-08-21T00:25:54.675Z,73.70
2017-08-21T00:28:25.058Z,74.19
2017-08-21T00:30:54.771Z,73.97
2017-08-21T00:33:25.135Z,74.34
2017-08-21T00:38:23.575Z,73.73
2017-08-21T00:40:53.506Z,74.79
2017-08-21T00:43:22.907Z,74.45
2017-08-21T00:45:52.147Z,74.09
2017-08-21T00:48:21.646Z,73.92
2017-08-21T00:50:51.883Z,74.32
2017-08-21T00:53:21.493Z,74.15
2017-08-21T00:55:50.718Z,74.43
2017-08-21T00:58:20.375Z,75.43
2017-08-21T01:00:49.683Z,74.78
2017-08-21T01:03:18.877Z,74.90
2017-08-21T01:05:48.385Z,75.13
2017-08-21T01:08:18.552Z,75.06
2017-08-21T01:10:48.053Z,75.18
2017-08-21T01:13:17.556Z,75.15
2017-08-21T01:15:46.829Z,75.43
2017-08-21T01:18:16.059Z,75.42
2017-08-21T01:20:45.867Z,75.73
2017-08-21T01:23:15.981Z,75.60
2017-08-21T01:25:46.000Z,75.50
2017-08-21T01:28:16.436Z,76.16
2017-08-21T01:30:46.150Z,76.80
2017-08-21T01:33:15.475Z,75.96
2017-08-21T01:35:45.107Z,77.22
2017-08-21T01:38:14.349Z,77.43
2017-08-21T01:40:44.128Z,76.62
2017-08-21T01:43:13.819Z,77.55
2017-08-21T01:45:43.110Z,76.88
2017-08-21T01:48:12.283Z,77.68
2017-08-21T01:50:41.844Z,77.59
2017-08-21T01:53:11.130Z,77.19
2017-08-21T01:55:40.911Z,76.81
2017-08-21T01:58:10.948Z,78.43
2017-08-21T02:00:40.310Z,77.76
2017-08-21T02:03:09.697Z,77.19
2017-08-21T02:05:39.726Z,77.28
2017-08-21T02:08:09.212Z,78.91
2017-08-21T02:10:38.479Z,77.33
2017-08-21T02:13:08.374Z,77.52
2017-08-21T02:15:37.558Z,78.68
2017-08-21T02:18:07.186Z,77.99
2017-08-21T02:20:36.507Z,77.75
2017-08-21T02:23:07.443Z,77.96
2017-08-21T02:25:36.847Z,77.91
2017-08-21T02:28:07.404Z,77.96
2017-08-21T02:30:40.915Z,77.75
2017-08-21T02:33:10.304Z,77.78
2017-08-21T02:35:40.223Z,78.14
2017-08-21T02:38:18.575Z,77.99
2017-08-21T02:40:48.279Z,78.39
2017-08-21T02:43:18.263Z,78.69
2017-08-21T02:45:47.519Z,78.74
2017-08-21T02:48:17.211Z,78.50
2017-08-21T02:50:47.042Z,78.54
2017-08-21T02:53:16.344Z,78.81
2017-08-21T02:55:45.711Z,78.80
2017-08-21T02:58:15.356Z,78.78
2017-08-21T03:00:45.089Z,79.03
2017-08-21T03:03:14.413Z,78.87
2017-08-21T03:05:43.884Z,79.33
2017-08-21T03:08:13.950Z,79.29
2017-08-21T03:10:43.149Z,79.34
2017-08-21T03:13:12.696Z,79.44
2017-08-21T03:15:42.538Z,79.78
2017-08-21T03:18:12.105Z,79.33
2017-08-21T03:20:41.748Z,78.97
2017-08-21T03:23:11.766Z,79.25
2017-08-21T03:25:40.982Z,79.34
2017-08-21T03:28:10.202Z,80.50
2017-08-21T03:30:39.684Z,80.09
2017-08-21T03:33:09.086Z,79.91
2017-08-21T03:35:38.598Z,79.37
2017-08-21T03:38:08.255Z,80.75
2017-08-21T03:40:38.076Z,79.84
2017-08-21T03:43:07.282Z,79.50
2017-08-21T03:45:36.713Z,80.67
2017-08-21T03:48:07.226Z,80.02
2017-08-21T03:50:37.526Z,79.64
2017-08-21T03:53:07.135Z,80.05
2017-08-21T03:55:38.189Z,79.69
2017-08-21T03:58:09.211Z,80.87
2017-08-21T04:00:38.612Z,79.63
2017-08-21T04:03:07.890Z,79.69
2017-08-21T04:05:37.114Z,80.28
2017-08-21T04:08:06.928Z,80.66
2017-08-21T04:10:36.274Z,81.16
2017-08-21T04:13:07.160Z,81.07
2017-08-21T04:15:36.894Z,82.15
2017-08-21T04:18:06.987Z,81.50
2017-08-21T04:20:37.302Z,81.18
2017-08-21T04:23:07.538Z,81.13
2017-08-21T04:25:36.736Z,80.98
2017-08-21T04:28:08.246Z,81.17
2017-08-21T04:30:37.904Z,80.83
2017-08-21T04:33:07.433Z,81.22
2017-08-21T04:35:36.643Z,80.70
2017-08-21T04:38:07.047Z,80.95
2017-08-21T04:40:36.694Z,81.18
2017-08-21T04:43:07.115Z,80.82
2017-08-21T04:45:36.329Z,81.16
2017-08-21T04:48:10.793Z,80.74
2017-08-21T04:50:41.105Z,80.28
2017-08-21T04:53:10.843Z,80.21
2017-08-21T04:55:40.194Z,81.65
2017-08-21T04:58:10.450Z,80.89
2017-08-21T05:00:40.098Z,80.94
2017-08-21T05:03:09.473Z,80.25
2017-08-21T05:05:39.884Z,81.11
2017-08-21T05:08:11.376Z,80.96
2017-08-21T05:10:40.933Z,80.76
2017-08-21T05:13:10.728Z,81.09
2017-08-21T05:15:40.554Z,80.91
2017-08-21T05:18:10.268Z,81.23
2017-08-21T05:21:01.665Z,80.58
2017-08-21T05:23:35.114Z,80.45
2017-08-21T05:26:07.598Z,80.72
2017-08-21T05:29:11.942Z,80.47
2017-08-21T05:31:41.473Z,80.28
2017-08-21T05:34:10.759Z,81.17
2017-08-21T05:36:43.499Z,80.84
2017-08-21T05:39:12.899Z,80.58
2017-08-21T05:41:42.431Z,78.97
2017-08-21T05:44:12.666Z,79.13
2017-08-21T05:46:42.038Z,79.04
2017-08-21T05:49:11.244Z,79.24
2017-08-21T05:51:40.726Z,79.53
2017-08-21T05:54:10.210Z,78.34
2017-08-21T05:56:40.063Z,78.86
2017-08-21T05:59:09.539Z,78.17
2017-08-21T06:01:38.870Z,78.13
2017-08-21T06:04:08.055Z,79.09
2017-08-21T06:06:38.175Z,78.26
2017-08-21T06:09:07.408Z,79.32
2017-08-21T06:11:37.012Z,78.16
2017-08-21T06:14:07.223Z,78.56
2017-08-21T06:16:43.619Z,78.04
2017-08-21T06:19:13.442Z,77.95
2017-08-21T06:21:42.902Z,78.10
2017-08-21T06:24:12.128Z,76.90
2017-08-21T06:26:41.868Z,76.39
2017-08-21T06:29:11.531Z,76.34
2017-08-21T06:31:40.791Z,76.32
2017-08-21T06:34:12.128Z,75.93
2017-08-21T06:36:41.407Z,75.84
2017-08-21T06:39:12.921Z,75.02
2017-08-21T06:41:42.655Z,74.93
2017-08-21T06:44:11.862Z,74.72
2017-08-21T06:46:41.145Z,73.31
2017-08-21T06:49:10.644Z,72.24
2017-08-21T06:51:40.169Z,73.09
2017-08-21T06:54:09.423Z,73.22
2017-08-21T06:56:39.256Z,73.12
2017-08-21T06:59:08.426Z,72.50
2017-08-21T07:01:37.698Z,72.21
2017-08-21T07:04:09.564Z,71.42
2017-08-21T07:06:38.764Z,70.75
2017-08-21T07:09:08.843Z,71.69
2017-08-21T07:11:38.773Z,71.56
2017-08-21T07:14:09.476Z,71.21
2017-08-21T07:16:39.879Z,71.20
2017-08-21T07:19:09.562Z,69.61
2017-08-21T07:21:38.931Z,69.12
2017-08-21T07:24:08.606Z,68.75
2017-08-21T07:26:39.502Z,69.13
2017-08-21T07:29:09.219Z,67.03
2017-08-21T07:31:38.698Z,67.17
2017-08-21T07:34:09.838Z,66.13
2017-08-21T07:36:39.087Z,67.64
2017-08-21T07:39:08.493Z,66.94
2017-08-21T07:41:37.964Z,65.64
2017-08-21T07:44:08.386Z,64.55
2017-08-21T07:46:37.919Z,66.77
2017-08-21T07:49:07.656Z,64.30
2017-08-21T07:51:36.975Z,64.18
2017-08-21T07:54:06.363Z,62.48
2017-08-21T07:56:35.815Z,62.32
2017-08-21T07:59:06.046Z,64.47
2017-08-21T08:01:35.460Z,62.00
2017-08-21T08:04:06.796Z,60.44
2017-08-21T08:06:36.119Z,60.91
2017-08-21T08:09:08.054Z,62.93
2017-08-21T08:11:37.519Z,62.75
2017-08-21T08:14:06.787Z,62.13
2017-08-21T08:16:35.974Z,63.48
2017-08-21T08:19:06.391Z,63.45
2017-08-21T08:21:35.574Z,61.71
2017-08-21T08:24:07.881Z,63.86
2017-08-21T08:26:37.384Z,62.86
2017-08-21T08:29:10.648Z,62.64
2017-08-21T08:31:39.855Z,62.47
2017-08-21T08:34:09.620Z,57.66
2017-08-21T08:36:40.903Z,57.33
2017-08-21T08:39:10.385Z,56.33
2017-08-21T08:41:43.211Z,56.69
2017-08-21T08:44:12.715Z,57.82
2017-08-21T08:46:41.903Z,58.34
2017-08-21T08:49:12.106Z,57.46
2017-08-21T08:51:41.523Z,57.58
2017-08-21T08:54:11.265Z,57.40
2017-08-21T08:56:40.902Z,57.58
2017-08-21T08:59:10.492Z,58.42
2017-08-21T09:01:39.918Z,58.32
2017-08-21T09:04:09.392Z,57.21
2017-08-21T09:06:38.847Z,58.63
2017-08-21T09:09:08.068Z,55.85
2017-08-21T09:11:37.783Z,54.10
2017-08-21T09:14:07.462Z,54.02
2017-08-21T09:16:36.723Z,53.10
2017-08-21T09:19:06.313Z,52.33
2017-08-21T09:21:39.880Z,54.72
2017-08-21T09:24:09.480Z,56.16
2017-08-21T09:26:39.025Z,58.82
2017-08-21T09:29:08.307Z,58.81
2017-08-21T09:31:37.856Z,57.10
2017-08-21T09:34:07.101Z,54.80
2017-08-21T09:36:36.278Z,52.19
2017-08-21T09:39:06.203Z,53.11
2017-08-21T09:41:35.745Z,51.79
2017-08-21T09:44:05.375Z,53.44
2017-08-21T09:46:35.182Z,55.89
2017-08-21T09:49:05.559Z,55.79
2017-08-21T09:51:34.750Z,54.95
2017-08-21T09:54:06.255Z,54.38
2017-08-21T09:56:35.838Z,54.39
2017-08-21T09:59:05.374Z,51.43
2017-08-21T10:01:34.998Z,52.91
2017-08-21T10:04:05.616Z,52.48
2017-08-21T10:06:35.111Z,52.46
2017-08-21T10:09:06.459Z,53.64
2017-08-21T10:11:36.075Z,53.95
2017-08-21T10:14:05.549Z,53.07
2017-08-21T10:16:35.091Z,52.99
2017-08-21T10:19:05.753Z,52.58
2017-08-21T10:21:35.022Z,52.89
2017-08-21T10:24:06.076Z,53.54
2017-08-21T10:26:35.354Z,52.31
2017-08-21T10:29:06.270Z,51.73
2017-08-21T10:31:36.087Z,49.91
2017-08-21T10:34:06.131Z,51.55
2017-08-21T10:36:35.587Z,47.93
2017-08-21T10:39:11.882Z,48.42
2017-08-21T10:41:41.475Z,46.64
2017-08-21T10:44:10.693Z,45.23
2017-08-21T10:46:40.322Z,46.73
2017-08-21T10:49:09.667Z,47.42
2017-08-21T10:51:38.866Z,50.85
2017-08-21T10:54:10.118Z,51.44
2017-08-21T10:56:39.306Z,50.33
2017-08-21T10:59:08.777Z,52.49
2017-08-21T11:01:38.355Z,50.96
2017-08-21T11:04:09.323Z,51.36
2017-08-21T11:06:38.547Z,48.73
2017-08-21T11:09:08.284Z,50.14
2017-08-21T11:11:37.651Z,47.68
2017-08-21T11:14:06.827Z,49.26
2017-08-21T11:16:36.316Z,49.83
2017-08-21T11:19:05.723Z,51.18
2017-08-21T11:21:34.971Z,49.16
2017-08-21T11:24:05.853Z,50.59
2017-08-21T11:26:35.036Z,49.97
2017-08-21T11:29:04.355Z,50.15
2017-08-21T11:31:33.868Z,52.35
2017-08-21T11:34:05.699Z,52.55
2017-08-21T11:39:08.555Z,50.12
2017-08-21T11:41:37.749Z,49.24
2017-08-21T11:44:06.951Z,51.46
2017-08-21T11:46:36.405Z,50.18
2017-08-21T11:49:05.840Z,50.75
2017-08-21T11:51:35.204Z,51.49
2017-08-21T11:54:05.465Z,50.78
2017-08-21T11:56:34.743Z,49.02
2017-08-21T11:59:05.624Z,47.83
2017-08-21T12:01:35.495Z,47.16
2017-08-21T12:04:05.884Z,44.74
2017-08-21T12:06:35.231Z,45.03
2017-08-21T12:09:06.687Z,45.80
2017-08-21T12:11:36.192Z,45.38
2017-08-21T12:14:06.697Z,45.87
2017-08-21T12:16:36.679Z,47.12
2017-08-21T12:19:06.159Z,44.50
2017-08-21T12:21:35.759Z,47.92
2017-08-21T12:24:06.611Z,48.07
2017-08-21T12:26:35.892Z,46.59
2017-08-21T12:29:06.241Z,46.81
2017-08-21T12:31:36.132Z,45.39
2017-08-21T12:34:06.724Z,43.43
2017-08-21T12:36:35.999Z,44.79
2017-08-21T12:39:06.584Z,45.40
2017-08-21T12:41:36.055Z,46.33
2017-08-21T12:44:06.400Z,47.25
2017-08-21T12:46:35.930Z,46.69
2017-08-21T12:49:07.525Z,43.74
2017-08-21T12:51:37.008Z,42.77
2017-08-21T12:54:06.215Z,44.26
2017-08-21T12:56:39.048Z,42.42
2017-08-21T12:59:08.640Z,42.52
2017-08-21T13:01:37.846Z,42.56
2017-08-21T13:04:07.195Z,43.18
2017-08-21T13:06:44.990Z,44.94
2017-08-21T13:09:17.546Z,43.29
2017-08-21T13:11:46.751Z,42.02
2017-08-21T13:14:16.536Z,44.78
2017-08-21T13:16:45.744Z,47.24
2017-08-21T13:19:14.956Z,47.75
2017-08-21T13:21:44.459Z,47.27
2017-08-21T13:24:13.760Z,45.82
2017-08-21T13:26:42.993Z,47.60
2017-08-21T13:29:12.671Z,45.66
2017-08-21T13:31:41.925Z,42.81
2017-08-21T13:34:11.117Z,45.99
2017-08-21T13:36:40.575Z,46.19
2017-08-21T13:39:09.765Z,45.95
2017-08-21T13:41:38.954Z,46.40
2017-08-21T13:44:08.563Z,46.36
2017-08-21T13:46:38.078Z,46.83
2017-08-21T13:49:07.359Z,43.64
2017-08-21T13:51:36.964Z,43.54
2017-08-21T13:54:06.353Z,45.60
2017-08-21T13:56:35.949Z,46.22
2017-08-21T13:59:06.165Z,47.84
2017-08-21T14:01:35.548Z,47.02
2017-08-21T14:04:06.296Z,45.25
2017-08-21T14:06:35.855Z,43.41
2017-08-21T14:09:06.775Z,45.33
2017-08-21T14:11:36.074Z,45.37
2017-08-21T14:14:06.635Z,44.56
2017-08-21T14:16:37.163Z,45.47
2017-08-21T14:19:06.427Z,46.87
2017-08-21T14:21:36.164Z,44.83
2017-08-21T14:24:05.730Z,45.04
2017-08-21T14:26:35.123Z,45.13
2017-08-21T14:29:07.015Z,44.08
2017-08-21T14:31:38.533Z,44.30
2017-08-21T14:34:07.723Z,44.28
2017-08-21T14:36:37.487Z,44.76
2017-08-21T14:39:07.427Z,43.26
2017-08-21T14:41:36.775Z,42.96
2017-08-21T14:44:07.088Z,43.14
2017-08-21T14:46:36.359Z,42.40
2017-08-21T14:49:05.584Z,42.01
2017-08-21T14:51:35.111Z,43.17
2017-08-21T14:54:05.873Z,45.73
2017-08-21T14:56:35.214Z,44.23
2017-08-21T14:59:06.243Z,43.81
2017-08-21T15:01:35.432Z,44.29
2017-08-21T15:04:06.802Z,44.43
2017-08-21T15:06:40.549Z,46.97
2017-08-21T15:09:09.828Z,44.33
2017-08-21T15:11:39.131Z,43.85
2017-08-21T15:14:08.928Z,42.54
2017-08-21T15:16:38.144Z,42.48
2017-08-21T15:19:07.450Z,44.87
2017-08-21T15:21:36.969Z,43.13
2017-08-21T15:24:06.514Z,41.93
2017-08-21T15:26:35.734Z,42.56
2017-08-21T15:29:06.163Z,43.98
2017-08-21T15:31:35.690Z,44.62
2017-08-21T15:34:06.098Z,45.08
2017-08-21T15:36:35.623Z,45.94
2017-08-21T15:39:06.755Z,46.66
2017-08-21T15:41:36.156Z,45.73
2017-08-21T15:44:06.939Z,45.62
2017-08-21T15:46:36.127Z,47.54
2017-08-21T15:49:06.714Z,48.46
2017-08-21T15:51:36.283Z,48.61
2017-08-21T15:54:11.378Z,49.43
2017-08-21T15:56:40.675Z,48.99
2017-08-21T15:59:11.905Z,47.56
2017-08-21T16:01:41.272Z,49.55
2017-08-21T16:04:10.945Z,49.11
2017-08-21T16:06:40.630Z,49.03
2017-08-21T16:09:10.185Z,49.65
2017-08-21T16:11:39.409Z,48.28
2017-08-21T16:14:11.370Z,49.46
2017-08-21T16:16:40.650Z,48.61
2017-08-21T16:19:09.911Z,49.17
2017-08-21T16:21:39.387Z,49.32
2017-08-21T16:24:08.655Z,49.99
2017-08-21T16:26:37.907Z,49.82
2017-08-21T16:29:07.480Z,49.79
2017-08-21T16:31:36.780Z,50.76
2017-08-21T16:34:06.455Z,49.77
2017-08-21T16:36:36.026Z,51.40
2017-08-21T16:39:06.403Z,51.30
2017-08-21T16:41:35.800Z,51.37
2017-08-21T16:44:06.523Z,51.01
2017-08-21T16:46:35.735Z,50.83
2017-08-21T16:49:05.742Z,51.62
2017-08-21T16:51:35.278Z,51.04
2017-08-21T16:54:06.790Z,51.24
2017-08-21T16:56:36.079Z,50.92
2017-08-21T16:59:06.172Z,51.25
2017-08-21T17:01:35.843Z,49.70
2017-08-21T17:04:07.019Z,50.48
2017-08-21T17:06:37.976Z,49.18
2017-08-21T17:09:07.226Z,50.04
2017-08-21T17:11:36.654Z,50.24
2017-08-21T17:14:06.441Z,50.30
2017-08-21T17:16:36.149Z,51.73
2017-08-21T17:19:08.103Z,52.00
2017-08-21T17:21:38.227Z,52.64
2017-08-21T17:24:08.499Z,53.59
2017-08-21T17:26:38.001Z,53.17
2017-08-21T17:29:08.739Z,54.33
2017-08-21T17:31:38.024Z,54.05
2017-08-21T17:34:07.776Z,54.92
2017-08-21T17:36:37.558Z,55.02
2017-08-21T17:39:06.857Z,55.22
2017-08-21T17:41:36.672Z,55.47
2017-08-21T17:44:06.663Z,55.89
2017-08-21T17:46:36.123Z,56.28
2017-08-21T17:49:08.170Z,56.20
2017-08-21T17:51:38.315Z,56.92
2017-08-21T17:54:08.067Z,56.90
2017-08-21T17:56:38.210Z,56.40
2017-08-21T17:59:08.058Z,57.22
2017-08-21T18:01:39.673Z,57.82
2017-08-21T18:04:11.593Z,58.21
2017-08-21T18:06:41.179Z,57.53
2017-08-21T18:09:17.871Z,57.73
2017-08-21T18:11:49.570Z,57.03
2017-08-21T18:14:19.008Z,57.49
2017-08-21T18:16:50.025Z,58.49
2017-08-21T18:19:19.882Z,57.62
2017-08-21T18:21:50.335Z,58.79
2017-08-21T18:24:21.229Z,58.06
2017-08-21T18:26:50.591Z,58.15
2017-08-21T18:29:20.135Z,58.10
2017-08-21T18:31:49.963Z,58.30
2017-08-21T18:34:19.572Z,59.71
2017-08-21T18:36:48.903Z,61.78
2017-08-21T18:39:18.529Z,61.65
2017-08-21T18:41:47.839Z,61.50
2017-08-21T18:44:17.059Z,60.31
2017-08-21T18:46:46.631Z,61.77
2017-08-21T18:49:15.940Z,64.14
2017-08-21T18:51:45.206Z,64.37
2017-08-21T18:54:14.750Z,62.99
2017-08-21T18:56:44.083Z,63.69
2017-08-21T18:59:13.363Z,62.76
2017-08-21T19:01:42.975Z,63.21
2017-08-21T19:04:12.496Z,63.51
2017-08-21T19:06:41.747Z,63.07
2017-08-21T19:09:11.667Z,63.38
2017-08-21T19:11:40.884Z,65.54
2017-08-21T19:14:10.156Z,65.16
2017-08-21T19:16:39.827Z,64.69
2017-08-21T19:19:09.251Z,65.06
2017-08-21T19:21:38.512Z,64.78
2017-08-21T19:24:08.987Z,64.87
2017-08-21T19:26:40.108Z,64.21
2017-08-21T19:29:09.319Z,63.46
2017-08-21T19:31:39.996Z,62.47
2017-08-21T19:34:12.228Z,62.54
2017-08-21T19:36:41.582Z,63.54
2017-08-21T19:39:11.183Z,64.07
2017-08-21T19:41:40.526Z,64.20
2017-08-21T19:44:10.420Z,64.21
2017-08-21T19:46:40.028Z,64.44
2017-08-21T19:49:09.190Z,64.56
2017-08-21T19:51:38.436Z,64.68
2017-08-21T19:54:07.968Z,64.41
2017-08-21T19:56:37.324Z,64.77
2017-08-21T19:59:06.528Z,64.93
2017-08-21T20:01:36.051Z,64.94
2017-08-21T20:04:05.219Z,69.05
2017-08-21T20:06:34.485Z,66.60
2017-08-21T20:09:04.242Z,66.22
2017-08-21T20:11:33.536Z,66.10
2017-08-21T20:14:04.667Z,66.49
2017-08-21T20:16:34.335Z,66.01
2017-08-21T20:19:05.615Z,66.17
2017-08-21T20:21:34.880Z,66.11
2017-08-21T20:24:06.732Z,66.40
2017-08-21T20:26:36.058Z,66.74
2017-08-21T20:29:07.041Z,66.24
2017-08-21T20:31:36.671Z,66.57
2017-08-21T20:34:05.886Z,66.70
2017-08-21T20:36:35.071Z,66.76
2017-08-21T20:39:05.424Z,67.16
2017-08-21T20:41:34.604Z,67.47
2017-08-21T20:44:03.819Z,67.60
2017-08-21T20:46:33.410Z,67.39
2017-08-21T20:49:04.967Z,67.67
2017-08-21T20:51:34.226Z,67.63
2017-08-21T20:54:05.794Z,67.43
2017-08-21T20:56:35.123Z,67.31
2017-08-21T20:59:06.267Z,67.55
2017-08-21T21:01:35.740Z,67.41
2017-08-21T21:04:07.219Z,67.41
2017-08-21T21:06:36.466Z,67.09
2017-08-21T21:09:06.945Z,66.91
2017-08-21T21:11:36.139Z,66.89
2017-08-21T21:14:06.615Z,67.33
2017-08-21T21:16:36.138Z,67.59
2017-08-21T21:19:06.135Z,67.77
2017-08-21T21:21:35.321Z,68.39
2017-08-21T21:24:05.756Z,68.59
2017-08-21T21:26:34.971Z,68.47
2017-08-21T21:29:07.373Z,68.81
2017-08-21T21:31:37.130Z,68.75
2017-08-21T21:34:06.530Z,68.58
2017-08-21T21:36:35.870Z,68.88
2017-08-21T21:39:06.653Z,68.84
2017-08-21T21:41:35.850Z,69.24
2017-08-21T21:44:05.836Z,70.17
2017-08-21T21:46:35.344Z,70.49
2017-08-21T21:49:06.196Z,70.55
2017-08-21T21:51:35.635Z,70.70
2017-08-21T21:54:06.463Z,70.96
2017-08-21T21:56:35.991Z,70.98
2017-08-21T21:59:06.343Z,71.17
2017-08-21T22:01:36.846Z,71.30
2017-08-21T22:04:06.099Z,71.38
2017-08-21T22:06:35.566Z,71.33
2017-08-21T22:09:08.156Z,71.34
2017-08-21T22:11:37.879Z,71.58
2017-08-21T22:14:07.147Z,71.60
2017-08-21T22:16:37.190Z,71.56
2017-08-21T22:19:06.463Z,71.46
2017-08-21T22:21:38.135Z,71.52
2017-08-21T22:24:08.939Z,71.89
2017-08-21T22:26:39.751Z,71.90
2017-08-21T22:29:09.204Z,72.13
2017-08-21T22:31:38.834Z,72.01
2017-08-21T22:34:08.062Z,72.41
2017-08-21T22:36:37.391Z,72.22
2017-08-21T22:39:06.946Z,73.22
2017-08-21T22:41:36.615Z,72.38
2017-08-21T22:44:06.752Z,73.46
2017-08-21T22:46:36.431Z,73.08
2017-08-21T22:49:06.754Z,72.80
2017-08-21T22:51:36.250Z,72.64
2017-08-21T22:54:06.827Z,72.75
2017-08-21T22:56:36.422Z,72.38
2017-08-21T22:59:06.723Z,72.74
2017-08-21T23:01:36.221Z,72.35
2017-08-21T23:04:06.944Z,72.54
2017-08-21T23:06:36.429Z,72.57
2017-08-21T23:09:06.935Z,72.85
2017-08-21T23:11:36.186Z,73.06
2017-08-21T23:14:06.409Z,72.82
2017-08-21T23:16:36.259Z,73.15
2017-08-21T23:19:06.461Z,73.24
2017-08-21T23:21:35.878Z,73.30
2017-08-21T23:24:08.328Z,73.45
2017-08-21T23:26:37.713Z,73.42
2017-08-21T23:29:06.887Z,73.35
2017-08-21T23:31:36.840Z,73.52
2017-08-21T23:34:06.019Z,73.40
2017-08-21T23:36:35.413Z,73.71
2017-08-21T23:39:06.918Z,73.35
2017-08-21T23:41:36.479Z,74.44
2017-08-21T23:44:06.015Z,78.45
2017-08-21T23:46:36.106Z,76.81
2017-08-21T23:49:06.510Z,75.80
2017-08-21T23:51:35.995Z,75.14
2017-08-21T23:54:06.271Z,79.05
2017-08-21T23:56:35.542Z,75.93
2017-08-21T23:59:06.304Z,76.12
